createdAt,value
2018-05-04T00:00:07.129Z,5.54
2018-05-04T00:01:07.600Z,5.52
2018-05-04T00:02:08.075Z,5.52
2018-05-04T00:03:08.606Z,5.50
2018-05-04T00:04:09.016Z,5.50
2018-05-04T00:05:09.487Z,5.50
2018-05-04T00:06:09.959Z,5.48
2018-05-04T00:07:10.432Z,5.47
2018-05-04T00:08:10.905Z,5.46
2018-05-04T00:09:11.375Z,5.44
2018-05-04T00:10:11.847Z,5.44
2018-05-04T00:11:12.374Z,5.44
2018-05-04T00:12:12.792Z,5.42
2018-05-04T00:13:13.271Z,5.42
2018-05-04T00:14:13.740Z,5.41
2018-05-04T00:15:14.210Z,5.40
2018-05-04T00:16:14.689Z,5.40
2018-05-04T00:17:15.158Z,5.38
2018-05-04T00:18:15.630Z,5.38
2018-05-04T00:19:16.103Z,5.38
2018-05-04T00:20:16.581Z,5.37
2018-05-04T00:21:17.050Z,5.35
2018-05-04T00:22:17.865Z,5.35
2018-05-04T00:23:17.998Z,5.34
2018-05-04T00:24:18.471Z,5.34
2018-05-04T00:25:18.944Z,5.32
2018-05-04T00:26:19.844Z,5.30
2018-05-04T00:27:19.893Z,5.30
2018-05-04T00:28:20.367Z,5.30
2018-05-04T00:29:20.840Z,5.28
2018-05-04T00:30:21.314Z,5.28
2018-05-04T00:31:21.790Z,5.26
2018-05-04T00:32:22.262Z,5.25
2018-05-04T00:33:22.737Z,5.24
2018-05-04T00:34:23.211Z,5.24
2018-05-04T00:35:23.687Z,5.22
2018-05-04T00:36:24.161Z,5.21
2018-05-04T00:37:24.631Z,5.21
2018-05-04T00:38:25.109Z,5.22
2018-05-04T00:39:25.583Z,5.20
2018-05-04T00:40:26.057Z,5.20
2018-05-04T00:41:26.529Z,5.19
2018-05-04T00:42:27.001Z,5.17
2018-05-04T00:43:27.479Z,5.18
2018-05-04T00:44:27.949Z,5.18
2018-05-04T00:45:28.422Z,5.17
2018-05-04T00:46:28.894Z,5.16
2018-05-04T00:47:29.372Z,5.16
2018-05-04T00:48:29.839Z,5.16
2018-05-04T00:49:30.314Z,5.13
2018-05-04T00:50:30.788Z,5.13
2018-05-04T00:51:31.255Z,5.12
2018-05-04T00:52:31.727Z,5.11
2018-05-04T00:53:32.197Z,5.12
2018-05-04T00:54:32.674Z,5.10
2018-05-04T00:55:33.342Z,5.10
2018-05-04T00:56:33.611Z,5.08
2018-05-04T00:57:34.081Z,5.09
2018-05-04T00:58:34.552Z,5.06
2018-05-04T00:59:35.025Z,5.05
2018-05-04T01:00:35.497Z,5.06
2018-05-04T01:01:35.963Z,5.04
2018-05-04T01:02:36.434Z,5.02
2018-05-04T01:03:36.905Z,5.02
2018-05-04T01:04:37.376Z,5.01
2018-05-04T01:05:37.844Z,4.98
2018-05-04T01:06:38.371Z,4.98
2018-05-04T01:07:38.785Z,4.98
2018-05-04T01:08:39.256Z,4.96
2018-05-04T01:09:39.726Z,4.95
2018-05-04T01:10:40.198Z,4.95
2018-05-04T01:11:40.669Z,4.94
2018-05-04T01:12:41.137Z,4.92
2018-05-04T01:13:41.608Z,4.92
2018-05-04T01:14:42.420Z,4.92
2018-05-04T01:15:42.550Z,4.92
2018-05-04T01:16:43.021Z,4.90
2018-05-04T01:17:43.490Z,4.90
2018-05-04T01:18:43.962Z,4.90
2018-05-04T01:19:44.774Z,4.88
2018-05-04T01:20:44.906Z,4.87
2018-05-04T01:21:45.374Z,4.87
2018-05-04T01:22:46.051Z,4.86
2018-05-04T01:23:46.317Z,4.86
2018-05-04T01:24:46.796Z,4.84
2018-05-04T01:25:47.286Z,4.85
2018-05-04T01:26:47.784Z,4.83
2018-05-04T01:27:48.206Z,4.83
2018-05-04T01:28:48.679Z,4.83
2018-05-04T01:29:49.148Z,4.82
2018-05-04T01:30:49.620Z,4.81
2018-05-04T01:31:50.433Z,4.82
2018-05-04T01:32:50.567Z,4.82
2018-05-04T01:33:51.041Z,4.80
2018-05-04T01:34:51.511Z,4.78
2018-05-04T01:35:51.983Z,4.78
2018-05-04T01:36:52.458Z,4.78
2018-05-04T01:37:52.928Z,4.77
2018-05-04T01:38:53.402Z,4.76
2018-05-04T01:39:54.077Z,4.76
2018-05-04T01:40:54.347Z,4.75
2018-05-04T01:41:54.870Z,4.74
2018-05-04T01:42:55.294Z,4.73
2018-05-04T01:43:55.768Z,4.74
2018-05-04T01:44:56.241Z,4.72
2018-05-04T01:45:56.714Z,4.72
2018-05-04T01:46:57.188Z,4.72
2018-05-04T01:47:57.660Z,4.71
2018-05-04T01:48:58.135Z,4.70
2018-05-04T01:49:58.608Z,4.70
2018-05-04T01:50:59.082Z,4.70
2018-05-04T01:51:59.608Z,4.70
2018-05-04T01:53:00.033Z,4.68
2018-05-04T01:54:00.508Z,4.66
2018-05-04T01:55:00.977Z,4.66
2018-05-04T01:56:01.455Z,4.66
2018-05-04T01:57:01.977Z,4.66
2018-05-04T01:58:02.400Z,4.65
2018-05-04T01:59:02.874Z,4.65
2018-05-04T02:00:03.351Z,4.64
2018-05-04T02:01:03.824Z,4.62
2018-05-04T02:02:04.500Z,4.64
2018-05-04T02:03:04.773Z,4.63
2018-05-04T02:04:05.245Z,4.61
2018-05-04T02:05:05.719Z,4.60
2018-05-04T02:06:06.196Z,4.60
2018-05-04T02:07:07.007Z,4.60
2018-05-04T02:08:07.141Z,4.60
2018-05-04T02:09:07.616Z,4.58
2018-05-04T02:10:08.094Z,4.58
2018-05-04T02:11:08.561Z,4.58
2018-05-04T02:12:09.528Z,4.56
2018-05-04T02:13:09.517Z,4.57
2018-05-04T02:14:09.982Z,4.54
2018-05-04T02:15:10.458Z,4.54
2018-05-04T02:16:10.933Z,4.56
2018-05-04T02:17:11.397Z,4.53
2018-05-04T02:18:11.870Z,4.54
2018-05-04T02:19:12.339Z,4.54
2018-05-04T02:20:12.812Z,4.52
2018-05-04T02:21:13.284Z,4.52
2018-05-04T02:22:13.758Z,4.52
2018-05-04T02:23:14.226Z,4.50
2018-05-04T02:24:14.696Z,4.50
2018-05-04T02:25:15.167Z,4.50
2018-05-04T02:27:16.161Z,4.50
2018-05-04T02:28:16.580Z,4.49
2018-05-04T02:29:17.051Z,4.48
2018-05-04T02:30:17.520Z,4.48
2018-05-04T02:31:17.989Z,4.46
2018-05-04T02:32:18.460Z,4.46
2018-05-04T02:33:18.930Z,4.46
2018-05-04T02:34:19.402Z,4.46
2018-05-04T02:35:19.870Z,4.44
2018-05-04T02:36:20.682Z,4.44
2018-05-04T02:37:20.811Z,4.44
2018-05-04T02:38:21.280Z,4.43
2018-05-04T02:39:21.789Z,4.43
2018-05-04T02:40:22.225Z,4.42
2018-05-04T02:41:22.694Z,4.42
2018-05-04T02:42:23.214Z,4.41
2018-05-04T02:43:23.638Z,4.40
2018-05-04T02:44:24.108Z,4.38
2018-05-04T02:45:24.576Z,4.40
2018-05-04T02:46:25.053Z,4.39
2018-05-04T02:47:25.515Z,4.38
2018-05-04T02:48:25.986Z,4.37
2018-05-04T02:49:26.459Z,4.37
2018-05-04T02:50:26.929Z,4.38
2018-05-04T02:51:27.400Z,4.36
2018-05-04T02:52:27.871Z,4.37
2018-05-04T02:53:28.686Z,4.34
2018-05-04T02:54:28.813Z,4.34
2018-05-04T02:55:29.362Z,4.34
2018-05-04T02:56:29.758Z,4.34
2018-05-04T02:57:30.281Z,4.34
2018-05-04T02:58:30.702Z,4.34
2018-05-04T02:59:31.176Z,4.33
2018-05-04T03:00:31.683Z,4.32
2018-05-04T03:01:32.116Z,4.32
2018-05-04T03:02:32.593Z,4.31
2018-05-04T03:03:33.062Z,4.31
2018-05-04T03:04:33.534Z,4.30
2018-05-04T03:05:34.007Z,4.30
2018-05-04T03:06:34.481Z,4.30
2018-05-04T03:07:34.951Z,4.28
2018-05-04T03:08:35.425Z,4.29
2018-05-04T03:09:35.899Z,4.27
2018-05-04T03:10:36.369Z,4.28
2018-05-04T03:11:36.843Z,4.27
2018-05-04T03:12:37.316Z,4.28
2018-05-04T03:13:37.790Z,4.26
2018-05-04T03:14:38.263Z,4.26
2018-05-04T03:15:38.739Z,4.24
2018-05-04T03:16:39.209Z,4.24
2018-05-04T03:17:39.682Z,4.24
2018-05-04T03:18:40.156Z,4.24
2018-05-04T03:19:40.665Z,4.23
2018-05-04T03:20:41.104Z,4.24
2018-05-04T03:21:41.576Z,4.24
2018-05-04T03:22:42.102Z,4.22
2018-05-04T03:23:42.525Z,4.23
2018-05-04T03:24:42.997Z,4.22
2018-05-04T03:25:43.472Z,4.20
2018-05-04T03:26:43.944Z,4.21
2018-05-04T03:27:44.419Z,4.22
2018-05-04T03:28:44.893Z,4.21
2018-05-04T03:29:45.367Z,4.20
2018-05-04T03:30:45.839Z,4.20
2018-05-04T03:31:46.325Z,4.18
2018-05-04T03:32:46.838Z,4.18
2018-05-04T03:33:47.262Z,4.18
2018-05-04T03:34:47.736Z,4.18
2018-05-04T03:35:48.211Z,4.18
2018-05-04T03:36:48.684Z,4.19
2018-05-04T03:37:49.160Z,4.18
2018-05-04T03:38:49.634Z,4.17
2018-05-04T03:39:50.107Z,4.16
2018-05-04T03:40:50.581Z,4.16
2018-05-04T03:41:51.059Z,4.16
2018-05-04T03:42:51.531Z,4.14
2018-05-04T03:43:52.002Z,4.14
2018-05-04T03:44:52.513Z,4.16
2018-05-04T03:45:52.951Z,4.14
2018-05-04T03:46:53.423Z,4.14
2018-05-04T03:47:53.946Z,4.14
2018-05-04T03:48:54.369Z,4.14
2018-05-04T03:49:54.843Z,4.13
2018-05-04T03:50:55.313Z,4.12
2018-05-04T03:51:55.793Z,4.13
2018-05-04T03:52:56.297Z,4.12
2018-05-04T03:53:56.731Z,4.12
2018-05-04T03:54:57.549Z,4.10
2018-05-04T03:55:57.677Z,4.11
2018-05-04T03:56:58.147Z,4.11
2018-05-04T03:57:58.620Z,4.11
2018-05-04T03:58:59.087Z,4.09
2018-05-04T03:59:59.559Z,4.09
2018-05-04T04:01:00.041Z,4.08
2018-05-04T04:02:00.502Z,4.08
2018-05-04T04:03:01.021Z,4.09
2018-05-04T04:04:01.442Z,4.08
2018-05-04T04:05:01.913Z,4.06
2018-05-04T04:06:02.383Z,4.06
2018-05-04T04:07:02.852Z,4.06
2018-05-04T04:08:03.373Z,4.04
2018-05-04T04:09:03.797Z,4.06
2018-05-04T04:10:04.264Z,4.05
2018-05-04T04:11:04.735Z,4.05
2018-05-04T04:12:05.206Z,4.04
2018-05-04T04:13:05.825Z,4.04
2018-05-04T04:14:06.145Z,4.04
2018-05-04T04:15:06.613Z,4.02
2018-05-04T04:16:07.084Z,4.03
2018-05-04T04:17:07.555Z,4.02
2018-05-04T04:18:08.076Z,4.02
2018-05-04T04:19:08.495Z,4.02
2018-05-04T04:20:08.971Z,4.02
2018-05-04T04:21:09.435Z,4.02
2018-05-04T04:22:09.906Z,4.02
2018-05-04T04:23:10.427Z,4.01
2018-05-04T04:24:10.851Z,4.02
2018-05-04T04:25:11.322Z,4.00
2018-05-04T04:26:11.793Z,4.00
2018-05-04T04:27:12.260Z,4.00
2018-05-04T04:28:12.795Z,4.00
2018-05-04T04:29:13.202Z,3.99
2018-05-04T04:30:13.675Z,4.00
2018-05-04T04:31:14.147Z,3.98
2018-05-04T04:32:14.618Z,3.99
2018-05-04T04:33:15.247Z,4.00
2018-05-04T04:34:15.561Z,3.99
2018-05-04T04:35:16.033Z,3.98
2018-05-04T04:36:16.507Z,3.98
2018-05-04T04:37:16.976Z,3.98
2018-05-04T04:38:17.449Z,3.98
2018-05-04T04:39:17.919Z,3.98
2018-05-04T04:40:18.392Z,3.98
2018-05-04T04:41:18.866Z,3.98
2018-05-04T04:42:19.340Z,3.99
2018-05-04T04:43:19.963Z,3.97
2018-05-04T04:44:20.319Z,3.98
2018-05-04T04:45:20.755Z,3.99
2018-05-04T04:46:21.227Z,3.98
2018-05-04T04:47:21.701Z,3.98
2018-05-04T04:48:22.323Z,3.97
2018-05-04T04:49:22.646Z,3.98
2018-05-04T04:50:23.119Z,3.98
2018-05-04T04:51:23.591Z,3.98
2018-05-04T04:52:24.063Z,3.98
2018-05-04T04:53:24.537Z,3.97
2018-05-04T04:54:25.017Z,3.97
2018-05-04T04:55:25.485Z,3.96
2018-05-04T04:56:25.966Z,3.95
2018-05-04T04:57:26.430Z,3.96
2018-05-04T04:58:26.904Z,3.96
2018-05-04T04:59:27.376Z,3.96
2018-05-04T05:00:27.850Z,3.96
2018-05-04T05:01:28.324Z,3.95
2018-05-04T05:02:28.802Z,3.95
2018-05-04T05:03:29.325Z,3.94
2018-05-04T05:04:29.747Z,3.94
2018-05-04T05:05:30.218Z,3.94
2018-05-04T05:06:30.693Z,3.94
2018-05-04T05:07:31.167Z,3.93
2018-05-04T05:08:31.639Z,3.94
2018-05-04T05:09:32.114Z,3.94
2018-05-04T05:10:32.591Z,3.92
2018-05-04T05:11:33.063Z,3.93
2018-05-04T05:12:33.535Z,3.93
2018-05-04T05:13:34.062Z,3.92
2018-05-04T05:14:34.484Z,3.94
2018-05-04T05:15:34.957Z,3.92
2018-05-04T05:16:35.432Z,3.94
2018-05-04T05:17:35.910Z,3.94
2018-05-04T05:18:36.382Z,3.93
2018-05-04T05:19:36.853Z,3.92
2018-05-04T05:20:37.329Z,3.92
2018-05-04T05:21:37.805Z,3.94
2018-05-04T05:22:38.278Z,3.93
2018-05-04T05:23:38.816Z,3.92
2018-05-04T05:24:39.225Z,3.92
2018-05-04T05:25:39.698Z,3.93
2018-05-04T05:26:40.173Z,3.92
2018-05-04T05:27:40.653Z,3.92
2018-05-04T05:28:41.169Z,3.92
2018-05-04T05:29:41.593Z,3.92
2018-05-04T05:30:42.065Z,3.93
2018-05-04T05:31:42.539Z,3.92
2018-05-04T05:32:43.010Z,3.92
2018-05-04T05:33:43.635Z,3.92
2018-05-04T05:34:43.956Z,3.92
2018-05-04T05:35:44.427Z,3.92
2018-05-04T05:36:44.901Z,3.91
2018-05-04T05:37:45.371Z,3.92
2018-05-04T05:38:45.892Z,3.92
2018-05-04T05:39:46.313Z,3.93
2018-05-04T05:40:46.821Z,3.92
2018-05-04T05:41:47.254Z,3.92
2018-05-04T05:42:47.768Z,3.92
2018-05-04T05:43:48.198Z,3.93
2018-05-04T05:44:48.666Z,3.93
2018-05-04T05:45:49.138Z,3.93
2018-05-04T05:46:49.609Z,3.93
2018-05-04T05:47:50.083Z,3.93
2018-05-04T05:48:50.698Z,3.93
2018-05-04T05:49:51.018Z,3.94
2018-05-04T05:50:51.487Z,3.94
2018-05-04T05:51:51.966Z,3.94
2018-05-04T05:52:52.434Z,3.94
2018-05-04T05:53:52.949Z,3.94
2018-05-04T05:54:53.368Z,3.94
2018-05-04T05:55:53.837Z,3.94
2018-05-04T05:56:54.307Z,3.94
2018-05-04T05:57:54.779Z,3.94
2018-05-04T05:58:55.299Z,3.94
2018-05-04T05:59:55.718Z,3.93
2018-05-04T06:00:56.188Z,3.94
2018-05-04T06:01:56.658Z,3.94
2018-05-04T06:02:57.128Z,3.95
2018-05-04T06:03:57.811Z,3.96
2018-05-04T06:04:58.069Z,3.98
2018-05-04T06:05:58.563Z,3.98
2018-05-04T06:06:59.013Z,4.00
2018-05-04T06:07:59.481Z,4.01
2018-05-04T06:08:59.953Z,4.02
2018-05-04T06:10:00.424Z,4.02
2018-05-04T06:11:00.896Z,4.04
2018-05-04T06:12:01.367Z,4.04
2018-05-04T06:13:01.837Z,4.08
2018-05-04T06:14:02.311Z,4.07
2018-05-04T06:15:02.839Z,4.10
2018-05-04T06:16:03.254Z,4.11
2018-05-04T06:17:03.725Z,4.12
2018-05-04T06:18:04.198Z,4.13
2018-05-04T06:19:04.669Z,4.13
2018-05-04T06:20:05.145Z,4.14
2018-05-04T06:21:05.612Z,4.15
2018-05-04T06:22:06.086Z,4.17
2018-05-04T06:23:06.558Z,4.18
2018-05-04T06:24:07.030Z,4.21
2018-05-04T06:25:07.556Z,4.21
2018-05-04T06:26:07.980Z,4.22
2018-05-04T06:27:08.450Z,4.23
2018-05-04T06:28:08.921Z,4.24
2018-05-04T06:29:09.397Z,4.25
2018-05-04T06:30:09.872Z,4.27
2018-05-04T06:31:10.342Z,4.28
2018-05-04T06:32:10.813Z,4.29
2018-05-04T06:33:11.287Z,4.30
2018-05-04T06:34:11.761Z,4.32
2018-05-04T06:35:12.234Z,4.33
2018-05-04T06:36:12.708Z,4.32
2018-05-04T06:37:13.180Z,4.34
2018-05-04T06:38:13.653Z,4.34
2018-05-04T06:39:14.184Z,4.36
2018-05-04T06:40:14.601Z,4.38
2018-05-04T06:41:15.074Z,4.38
2018-05-04T06:42:15.551Z,4.40
2018-05-04T06:43:16.024Z,4.40
2018-05-04T06:44:16.548Z,4.42
2018-05-04T06:45:16.975Z,4.42
2018-05-04T06:46:17.444Z,4.42
2018-05-04T06:47:17.918Z,4.44
2018-05-04T06:48:18.392Z,4.46
2018-05-04T06:49:18.866Z,4.48
2018-05-04T06:50:19.339Z,4.48
2018-05-04T06:51:19.815Z,4.50
2018-05-04T06:52:20.290Z,4.50
2018-05-04T06:53:20.827Z,4.51
2018-05-04T06:54:21.287Z,4.52
2018-05-04T06:55:21.711Z,4.54
2018-05-04T06:56:22.222Z,4.56
2018-05-04T06:57:22.667Z,4.57
2018-05-04T06:58:23.134Z,4.58
2018-05-04T06:59:23.728Z,4.59
2018-05-04T07:00:24.080Z,4.62
2018-05-04T07:01:24.555Z,4.62
2018-05-04T07:02:25.031Z,4.64
2018-05-04T07:03:25.501Z,4.65
2018-05-04T07:04:25.974Z,4.66
2018-05-04T07:05:26.789Z,4.68
2018-05-04T07:06:26.957Z,4.69
2018-05-04T07:07:27.393Z,4.70
2018-05-04T07:08:27.865Z,4.72
2018-05-04T07:09:28.340Z,4.74
2018-05-04T07:10:28.827Z,4.76
2018-05-04T07:11:29.280Z,4.77
2018-05-04T07:12:29.751Z,4.80
2018-05-04T07:13:30.222Z,4.80
2018-05-04T07:14:30.694Z,4.83
2018-05-04T07:15:31.165Z,4.84
2018-05-04T07:16:31.638Z,4.85
2018-05-04T07:17:32.105Z,4.87
2018-05-04T07:18:32.576Z,4.90
2018-05-04T07:19:33.136Z,4.91
2018-05-04T07:20:33.517Z,4.94
2018-05-04T07:21:33.992Z,4.96
2018-05-04T07:22:34.459Z,4.98
2018-05-04T07:23:34.931Z,5.00
2018-05-04T07:24:35.398Z,5.01
2018-05-04T07:25:35.869Z,5.04
2018-05-04T07:26:36.340Z,5.04
2018-05-04T07:27:36.810Z,5.08
2018-05-04T07:28:37.321Z,5.10
2018-05-04T07:29:37.803Z,5.10
2018-05-04T07:30:38.221Z,5.13
2018-05-04T07:31:38.691Z,5.16
2018-05-04T07:32:39.161Z,5.18
2018-05-04T07:33:39.633Z,5.19
2018-05-04T07:34:40.155Z,5.20
2018-05-04T07:35:40.578Z,5.22
2018-05-04T07:36:41.048Z,5.23
2018-05-04T07:37:41.515Z,5.26
2018-05-04T07:38:41.989Z,5.28
2018-05-04T07:39:42.460Z,5.30
2018-05-04T07:40:42.929Z,5.33
2018-05-04T07:41:43.401Z,5.34
2018-05-04T07:42:43.873Z,5.36
2018-05-04T07:43:44.345Z,5.38
2018-05-04T07:44:44.818Z,5.40
2018-05-04T07:45:45.288Z,5.42
2018-05-04T07:46:45.761Z,5.44
2018-05-04T07:47:46.234Z,5.44
2018-05-04T07:48:46.770Z,5.47
2018-05-04T07:49:47.177Z,5.49
2018-05-04T07:50:47.649Z,5.51
2018-05-04T07:51:48.122Z,5.52
2018-05-04T07:52:48.595Z,5.55
2018-05-04T07:53:49.069Z,5.56
2018-05-04T07:54:49.540Z,5.58
2018-05-04T07:55:50.015Z,5.58
2018-05-04T07:56:50.488Z,5.61
2018-05-04T07:57:50.960Z,5.62
2018-05-04T07:58:51.434Z,5.62
2018-05-04T07:59:51.907Z,5.64
2018-05-04T08:00:52.380Z,5.66
2018-05-04T08:01:52.853Z,5.68
2018-05-04T08:02:53.331Z,5.69
2018-05-04T08:03:53.802Z,5.72
2018-05-04T08:04:54.276Z,5.72
2018-05-04T08:05:54.750Z,5.74
2018-05-04T08:06:55.224Z,5.76
2018-05-04T08:07:55.697Z,5.77
2018-05-04T08:08:56.174Z,5.79
2018-05-04T08:09:56.696Z,5.80
2018-05-04T08:10:57.120Z,5.84
2018-05-04T08:11:57.595Z,5.84
2018-05-04T08:12:58.069Z,5.86
2018-05-04T08:13:58.548Z,5.90
2018-05-04T08:14:59.071Z,5.91
2018-05-04T08:15:59.493Z,5.94
2018-05-04T08:16:59.973Z,5.95
2018-05-04T08:18:00.441Z,5.98
2018-05-04T08:19:00.918Z,5.99
2018-05-04T08:20:01.451Z,6.02
2018-05-04T08:21:01.864Z,6.04
2018-05-04T08:22:02.336Z,6.05
2018-05-04T08:23:02.815Z,6.08
2018-05-04T08:24:03.286Z,6.10
2018-05-04T08:25:03.757Z,6.11
2018-05-04T08:26:04.230Z,6.14
2018-05-04T08:27:04.705Z,6.15
2018-05-04T08:28:05.520Z,6.16
2018-05-04T08:29:05.651Z,6.19
2018-05-04T08:30:06.123Z,6.20
2018-05-04T08:31:06.595Z,6.22
2018-05-04T08:32:07.065Z,6.23
2018-05-04T08:33:07.738Z,6.26
2018-05-04T08:34:08.008Z,6.28
2018-05-04T08:35:08.535Z,6.30
2018-05-04T08:36:08.950Z,6.32
2018-05-04T08:37:09.421Z,6.34
2018-05-04T08:38:09.895Z,6.36
2018-05-04T08:39:10.368Z,6.37
2018-05-04T08:40:10.885Z,6.39
2018-05-04T08:41:11.304Z,6.40
2018-05-04T08:42:11.776Z,6.42
2018-05-04T08:43:12.256Z,6.44
2018-05-04T08:44:12.717Z,6.45
2018-05-04T08:45:13.188Z,6.48
2018-05-04T08:46:13.657Z,6.48
2018-05-04T08:47:14.131Z,6.50
2018-05-04T08:48:14.661Z,6.52
2018-05-04T08:50:15.541Z,6.54
2018-05-04T08:51:16.021Z,6.56
2018-05-04T08:52:16.483Z,6.60
2018-05-04T08:53:16.955Z,6.61
2018-05-04T08:54:17.480Z,6.64
2018-05-04T08:55:17.948Z,6.66
2018-05-04T08:56:18.369Z,6.66
2018-05-04T08:57:18.924Z,6.68
2018-05-04T08:58:19.309Z,6.71
2018-05-04T08:59:19.782Z,6.72
2018-05-04T09:00:20.254Z,6.76
2018-05-04T09:01:20.726Z,6.76
2018-05-04T09:02:21.197Z,6.79
2018-05-04T09:03:21.669Z,6.82
2018-05-04T09:04:22.144Z,6.84
2018-05-04T09:05:22.691Z,6.88
2018-05-04T09:06:23.089Z,6.91
2018-05-04T09:07:23.558Z,6.93
2018-05-04T09:08:24.031Z,6.95
2018-05-04T09:09:24.503Z,6.98
2018-05-04T09:10:24.978Z,7.00
2018-05-04T09:11:25.450Z,7.02
2018-05-04T09:12:25.927Z,7.04
2018-05-04T09:13:26.399Z,7.06
2018-05-04T09:14:26.871Z,7.08
2018-05-04T09:15:27.344Z,7.10
2018-05-04T09:16:27.817Z,7.13
2018-05-04T09:17:28.291Z,7.14
2018-05-04T09:18:28.765Z,7.18
2018-05-04T09:19:29.243Z,7.18
2018-05-04T09:20:29.716Z,7.20
2018-05-04T09:21:30.189Z,7.22
2018-05-04T09:22:30.663Z,7.25
2018-05-04T09:23:31.137Z,7.26
2018-05-04T09:24:31.612Z,7.30
2018-05-04T09:25:32.085Z,7.32
2018-05-04T09:26:32.561Z,7.34
2018-05-04T09:27:33.039Z,7.34
2018-05-04T09:28:33.511Z,7.37
2018-05-04T09:29:33.987Z,7.39
2018-05-04T09:30:34.461Z,7.40
2018-05-04T09:31:34.937Z,7.44
2018-05-04T09:32:35.413Z,7.46
2018-05-04T09:33:35.889Z,7.46
2018-05-04T09:34:36.359Z,7.49
2018-05-04T09:35:36.883Z,7.51
2018-05-04T09:36:37.308Z,7.53
2018-05-04T09:37:37.780Z,7.55
2018-05-04T09:38:38.254Z,7.57
2018-05-04T09:39:38.728Z,7.61
2018-05-04T09:40:39.201Z,7.63
2018-05-04T09:41:39.682Z,7.65
2018-05-04T09:42:40.148Z,7.68
2018-05-04T09:43:40.627Z,7.69
2018-05-04T09:44:41.093Z,7.72
2018-05-04T09:45:41.566Z,7.75
2018-05-04T09:46:42.040Z,7.78
2018-05-04T09:47:42.514Z,7.80
2018-05-04T09:48:42.985Z,7.82
2018-05-04T09:49:43.456Z,7.88
2018-05-04T09:50:43.930Z,7.90
2018-05-04T09:51:44.400Z,7.91
2018-05-04T09:52:44.873Z,7.93
2018-05-04T09:53:45.347Z,7.95
2018-05-04T09:54:45.816Z,7.99
2018-05-04T09:55:46.336Z,8.00
2018-05-04T09:56:46.756Z,8.02
2018-05-04T09:57:47.226Z,8.06
2018-05-04T09:58:47.701Z,8.09
2018-05-04T09:59:48.171Z,8.11
2018-05-04T10:00:48.642Z,8.14
2018-05-04T10:01:49.111Z,8.15
2018-05-04T10:02:49.583Z,8.16
2018-05-04T10:03:50.055Z,8.21
2018-05-04T10:04:50.528Z,8.21
2018-05-04T10:05:51.002Z,8.24
2018-05-04T10:06:51.470Z,8.28
2018-05-04T10:07:51.941Z,8.30
2018-05-04T10:08:52.413Z,8.32
2018-05-04T10:09:52.886Z,8.35
2018-05-04T10:10:53.358Z,8.38
2018-05-04T10:11:53.830Z,8.41
2018-05-04T10:12:54.301Z,8.44
2018-05-04T10:13:54.773Z,8.46
2018-05-04T10:14:55.247Z,8.52
2018-05-04T10:15:55.769Z,8.53
2018-05-04T10:16:56.192Z,8.56
2018-05-04T10:17:56.666Z,8.60
2018-05-04T10:18:57.137Z,8.63
2018-05-04T10:19:57.611Z,8.68
2018-05-04T10:20:58.084Z,8.72
2018-05-04T10:21:58.622Z,8.76
2018-05-04T10:22:59.030Z,8.80
2018-05-04T10:23:59.506Z,8.84
2018-05-04T10:24:59.979Z,8.90
2018-05-04T10:26:00.455Z,8.94
2018-05-04T10:27:00.928Z,8.98
2018-05-04T10:28:01.404Z,9.03
2018-05-04T10:29:01.875Z,9.06
2018-05-04T10:30:02.350Z,9.12
2018-05-04T10:31:02.825Z,9.14
2018-05-04T10:32:03.301Z,9.18
2018-05-04T10:34:04.251Z,9.26
2018-05-04T10:35:04.728Z,9.28
2018-05-04T10:36:05.201Z,9.33
2018-05-04T10:37:05.880Z,9.35
2018-05-04T10:38:06.163Z,9.38
2018-05-04T10:39:06.628Z,9.42
2018-05-04T10:40:07.103Z,9.44
2018-05-04T10:41:07.579Z,9.48
2018-05-04T10:42:08.053Z,9.50
2018-05-04T10:43:08.527Z,9.52
2018-05-04T10:44:09.003Z,9.56
2018-05-04T10:45:09.502Z,9.59
2018-05-04T10:46:09.952Z,9.62
2018-05-04T10:47:10.429Z,9.64
2018-05-04T10:48:10.903Z,9.66
2018-05-04T10:49:11.376Z,9.69
2018-05-04T10:50:11.849Z,9.70
2018-05-04T10:51:12.377Z,9.73
2018-05-04T10:52:12.797Z,9.74
2018-05-04T10:53:13.274Z,9.77
2018-05-04T10:54:13.741Z,9.78
2018-05-04T10:55:14.215Z,9.82
2018-05-04T10:56:14.689Z,9.84
2018-05-04T10:57:15.237Z,9.86
2018-05-04T10:58:15.634Z,9.88
2018-05-04T10:59:16.106Z,9.90
2018-05-04T11:00:16.577Z,9.92
2018-05-04T11:01:17.053Z,9.93
2018-05-04T11:02:17.521Z,9.94
2018-05-04T11:03:18.023Z,9.98
2018-05-04T11:04:18.468Z,9.99
2018-05-04T11:05:18.967Z,9.99
2018-05-04T11:06:19.460Z,10.00
2018-05-04T11:07:19.881Z,10.02
2018-05-04T11:08:20.352Z,10.04
2018-05-04T11:09:20.823Z,10.06
2018-05-04T11:10:21.295Z,10.06
2018-05-04T11:11:21.765Z,10.08
2018-05-04T11:12:22.241Z,10.10
2018-05-04T11:13:22.710Z,10.10
2018-05-04T11:14:23.381Z,10.12
2018-05-04T11:15:23.652Z,10.14
2018-05-04T11:16:24.126Z,10.15
2018-05-04T11:17:24.595Z,10.16
2018-05-04T11:18:25.070Z,10.19
2018-05-04T11:19:25.603Z,10.20
2018-05-04T11:20:26.012Z,10.20
2018-05-04T11:21:26.485Z,10.18
2018-05-04T11:22:26.956Z,10.20
2018-05-04T11:23:27.432Z,10.21
2018-05-04T11:24:27.902Z,10.23
2018-05-04T11:25:28.452Z,10.23
2018-05-04T11:26:28.846Z,10.25
2018-05-04T11:27:29.322Z,10.24
2018-05-04T11:28:29.793Z,10.26
2018-05-04T11:29:30.267Z,10.27
2018-05-04T11:30:30.739Z,10.28
2018-05-04T11:31:31.218Z,10.28
2018-05-04T11:32:31.689Z,10.30
2018-05-04T11:33:32.163Z,10.30
2018-05-04T11:34:32.636Z,10.31
2018-05-04T11:35:33.109Z,10.32
2018-05-04T11:36:33.633Z,10.33
2018-05-04T11:37:34.059Z,10.34
2018-05-04T11:38:34.533Z,10.36
2018-05-04T11:39:35.010Z,10.35
2018-05-04T11:40:35.485Z,10.35
2018-05-04T11:41:36.011Z,10.36
2018-05-04T11:42:36.433Z,10.38
2018-05-04T11:43:36.909Z,10.38
2018-05-04T11:44:37.383Z,10.39
2018-05-04T11:45:37.861Z,10.40
2018-05-04T11:46:38.336Z,10.40
2018-05-04T11:47:38.816Z,10.42
2018-05-04T11:48:39.286Z,10.42
2018-05-04T11:49:39.798Z,10.43
2018-05-04T11:50:40.234Z,10.44
2018-05-04T11:51:40.714Z,10.45
2018-05-04T11:52:41.185Z,10.47
2018-05-04T11:53:41.659Z,10.48
2018-05-04T11:54:42.135Z,10.49
2018-05-04T11:55:42.609Z,10.51
2018-05-04T11:56:43.086Z,10.52
2018-05-04T11:57:43.558Z,10.53
2018-05-04T11:58:44.031Z,10.55
2018-05-04T11:59:44.505Z,10.56
2018-05-04T12:00:44.983Z,10.58
2018-05-04T12:01:45.457Z,10.59
2018-05-04T12:02:45.927Z,10.60
2018-05-04T12:03:46.399Z,10.62
2018-05-04T12:04:47.122Z,10.64
2018-05-04T12:05:47.349Z,10.65
2018-05-04T12:06:47.820Z,10.66
2018-05-04T12:07:48.295Z,10.66
2018-05-04T12:08:48.764Z,10.68
2018-05-04T12:09:49.237Z,10.69
2018-05-04T12:10:49.734Z,10.72
2018-05-04T12:11:50.182Z,10.74
2018-05-04T12:12:50.652Z,10.76
2018-05-04T12:13:51.126Z,10.75
2018-05-04T12:14:51.595Z,10.78
2018-05-04T12:15:52.069Z,10.79
2018-05-04T12:16:52.590Z,10.80
2018-05-04T12:17:53.012Z,10.80
2018-05-04T12:18:53.485Z,10.82
2018-05-04T12:19:53.955Z,10.83
2018-05-04T12:20:54.427Z,10.86
2018-05-04T12:21:54.898Z,10.86
2018-05-04T12:22:55.535Z,10.88
2018-05-04T12:23:55.842Z,10.89
2018-05-04T12:24:56.314Z,10.90
2018-05-04T12:25:56.986Z,10.91
2018-05-04T12:26:57.307Z,10.93
2018-05-04T12:27:57.729Z,10.94
2018-05-04T12:28:58.201Z,10.95
2018-05-04T12:29:58.675Z,10.97
2018-05-04T12:30:59.145Z,10.98
2018-05-04T12:31:59.620Z,10.99
2018-05-04T12:33:00.091Z,11.00
2018-05-04T12:34:00.563Z,11.04
2018-05-04T12:35:01.035Z,11.02
2018-05-04T12:36:01.509Z,11.06
2018-05-04T12:37:02.059Z,11.06
2018-05-04T12:38:02.456Z,11.07
2018-05-04T12:39:02.929Z,11.08
2018-05-04T12:40:03.406Z,11.10
2018-05-04T12:41:03.878Z,11.10
2018-05-04T12:42:04.350Z,11.12
2018-05-04T12:43:04.901Z,11.12
2018-05-04T12:44:05.300Z,11.14
2018-05-04T12:45:05.775Z,11.16
2018-05-04T12:46:06.252Z,11.16
2018-05-04T12:47:06.827Z,11.16
2018-05-04T12:48:07.200Z,11.18
2018-05-04T12:49:07.739Z,11.18
2018-05-04T12:50:08.152Z,11.19
2018-05-04T12:51:08.624Z,11.19
2018-05-04T12:52:09.101Z,11.19
2018-05-04T12:53:09.576Z,11.20
2018-05-04T12:54:10.052Z,11.20
2018-05-04T12:55:10.525Z,11.20
2018-05-04T12:56:11.001Z,11.22
2018-05-04T12:57:11.529Z,11.21
2018-05-04T12:58:11.955Z,11.22
2018-05-04T12:59:12.427Z,11.22
2018-05-04T13:00:12.905Z,11.23
2018-05-04T13:01:13.384Z,11.24
2018-05-04T13:02:13.855Z,11.26
2018-05-04T13:03:14.328Z,11.25
2018-05-04T13:04:14.801Z,11.24
2018-05-04T13:05:15.278Z,11.26
2018-05-04T13:06:15.751Z,11.26
2018-05-04T13:07:16.227Z,11.26
2018-05-04T13:08:16.700Z,11.26
2018-05-04T13:09:17.176Z,11.26
2018-05-04T13:10:17.648Z,11.27
2018-05-04T13:11:18.121Z,11.28
2018-05-04T13:12:18.596Z,11.28
2018-05-04T13:13:19.068Z,11.28
2018-05-04T13:14:19.543Z,11.29
2018-05-04T13:15:20.015Z,11.28
2018-05-04T13:16:20.485Z,11.28
2018-05-04T13:17:21.024Z,11.28
2018-05-04T13:18:21.433Z,11.28
2018-05-04T13:19:21.903Z,11.28
2018-05-04T13:20:22.376Z,11.29
2018-05-04T13:21:22.847Z,11.30
2018-05-04T13:22:23.320Z,11.28